Time;durP1;ratioP1;P1;durP2;ratioP2;P2;SDS_P1;SDS_P2;PMS_P1;PMS_P2;Temp;Humidity;BMP_temperature;BMP_pressure;BME280_temperature;BME280_humidity;BME280_pressure;Samples;Min_cycle;Max_cycle;Signal;HPM_P1;HPM_P2
2024/01/09 00:01:12;;;;;;;22.95;14.27;;;;;;;2.50;100.00;99421.66;5071154;28;20024;-71
2024/01/09 00:03:37;;;;;;;27.35;16.35;;;;;;;2.43;100.00;99425.81;5074358;28;20489;-71
2024/01/09 00:06:03;;;;;;;24.95;14.85;;;;;;;2.47;100.00;99424.13;5057695;28;20017;-71
2024/01/09 00:08:28;;;;;;;28.13;14.48;;;;;;;2.41;100.00;99437.13;5052937;28;20025;-71
2024/01/09 00:10:54;;;;;;;26.48;14.52;;;;;;;2.58;100.00;99436.78;5069442;28;20416;-71
2024/01/09 00:13:19;;;;;;;25.58;15.07;;;;;;;2.34;100.00;99445.72;5073749;28;20099;-69
2024/01/09 00:15:45;;;;;;;26.23;14.40;;;;;;;2.38;100.00;99445.97;5053518;28;20032;-69
2024/01/09 00:18:11;;;;;;;22.75;14.23;;;;;;;2.36;100.00;99448.19;5054015;28;20049;-71
2024/01/09 00:20:37;;;;;;;27.85;15.05;;;;;;;2.24;100.00;99460.38;5062308;28;20520;-69
2024/01/09 00:23:03;;;;;;;26.38;13.40;;;;;;;2.24;100.00;99465.91;5054127;28;20032;-69
2024/01/09 00:25:28;;;;;;;25.92;14.60;;;;;;;2.14;100.00;99476.97;5053958;28;20489;-71
2024/01/09 00:27:54;;;;;;;25.30;13.93;;;;;;;2.23;100.00;99474.44;5064931;28;20029;-71
2024/01/09 00:30:19;;;;;;;24.48;15.73;;;;;;;2.24;100.00;99465.91;5055795;28;20028;-71
2024/01/09 00:32:48;;;;;;;27.67;15.50;;;;;;;2.31;100.00;99476.66;5055896;28;20635;-70
2024/01/09 00:35:15;;;;;;;23.40;13.87;;;;;;;2.26;100.00;99484.91;5073710;28;20292;-70
2024/01/09 00:37:41;;;;;;;31.65;16.08;;;;;;;2.21;100.00;99480.22;5051726;28;20029;-71
2024/01/09 00:40:08;;;;;;;22.25;14.70;;;;;;;2.28;100.00;99482.72;5053231;28;20033;-71
2024/01/09 00:42:33;;;;;;;27.00;16.10;;;;;;;2.29;100.00;99489.88;5053720;28;20017;-71
2024/01/09 00:45:00;;;;;;;27.23;15.23;;;;;;;2.19;100.00;99487.16;5067734;28;20047;-69
2024/01/09 00:47:27;;;;;;;24.80;15.63;;;;;;;2.20;100.00;99497.91;5073616;28;20032;-69
2024/01/09 00:49:52;;;;;;;29.00;16.13;;;;;;;2.13;100.00;99499.31;5073062;28;20028;-69
2024/01/09 00:52:17;;;;;;;23.92;14.80;;;;;;;2.12;100.00;99492.97;5055498;28;20378;-69
2024/01/09 00:54:43;;;;;;;28.67;15.60;;;;;;;2.23;100.00;99491.00;5036412;28;20099;-69
2024/01/09 00:57:09;;;;;;;22.67;13.98;;;;;;;2.14;100.00;99500.94;5034775;28;20025;-69
2024/01/09 00:59:34;;;;;;;25.20;15.07;;;;;;;2.23;100.00;99505.66;5053232;28;20513;-69
2024/01/09 01:02:00;;;;;;;26.83;15.18;;;;;;;2.06;100.00;99503.19;5053331;28;20017;-69
2024/01/09 01:04:25;;;;;;;24.25;13.32;;;;;;;2.01;100.00;99483.84;5053247;28;20025;-69
2024/01/09 01:06:51;;;;;;;20.55;13.35;;;;;;;2.09;100.00;99499.03;5053220;28;20079;-69
2024/01/09 01:09:16;;;;;;;40.05;12.85;;;;;;;1.97;100.00;99504.84;5054620;28;20033;-69
2024/01/09 01:11:42;;;;;;;22.98;13.40;;;;;;;2.06;100.00;99505.09;5059543;28;20058;-69
2024/01/09 01:14:07;;;;;;;21.40;13.90;;;;;;;1.91;100.00;99492.97;5059502;28;20036;-69
2024/01/09 01:16:33;;;;;;;18.90;11.85;;;;;;;1.89;100.00;99502.63;5072905;28;20082;-69
2024/01/09 01:18:58;;;;;;;24.30;12.13;;;;;;;1.80;100.00;99505.94;5053882;28;20032;-69
2024/01/09 01:21:23;;;;;;;21.15;12.65;;;;;;;1.83;100.00;99512.84;5072134;28;20021;-68
2024/01/09 01:23:49;;;;;;;22.20;12.63;;;;;;;1.66;100.00;99515.84;5073094;28;20055;-68
2024/01/09 01:26:14;;;;;;;19.83;12.32;;;;;;;1.71;100.00;99513.13;5072881;28;20017;-68
2024/01/09 01:28:41;;;;;;;18.73;12.32;;;;;;;1.69;100.00;99512.56;5056094;28;20025;-68
2024/01/09 01:31:07;;;;;;;22.13;12.15;;;;;;;1.61;100.00;99513.91;5052605;28;20489;-68
2024/01/09 01:33:32;;;;;;;25.23;12.60;;;;;;;1.57;100.00;99523.84;5052828;28;20032;-68
2024/01/09 01:35:58;;;;;;;20.58;12.63;;;;;;;1.52;100.00;99521.09;5052722;28;20536;-68
2024/01/09 01:38:23;;;;;;;19.75;12.27;;;;;;;1.54;100.00;99518.91;5052615;28;20024;-68
2024/01/09 01:40:49;;;;;;;20.88;12.45;;;;;;;1.57;100.00;99523.84;5052423;28;20024;-70
2024/01/09 01:43:14;;;;;;;20.17;12.55;;;;;;;1.48;100.00;99525.47;5052114;28;20056;-68
2024/01/09 01:45:40;;;;;;;21.40;12.80;;;;;;;1.53;100.00;99536.53;5071540;28;20025;-68
2024/01/09 01:48:06;;;;;;;21.27;13.75;;;;;;;1.39;100.00;99526.03;5072402;28;20421;-68
2024/01/09 01:50:32;;;;;;;22.55;14.65;;;;;;;1.30;100.00;99537.84;5072298;28;20036;-68
2024/01/09 01:53:00;;;;;;;19.08;12.77;;;;;;;1.21;100.00;99529.28;5054588;28;20032;-68
2024/01/09 01:55:28;;;;;;;19.77;12.90;;;;;;;1.15;100.00;99528.44;5072208;28;20028;-68
2024/01/09 01:57:55;;;;;;;24.90;15.57;;;;;;;1.23;100.00;99535.34;5054137;28;20115;-68
2024/01/09 02:00:21;;;;;;;22.83;14.65;;;;;;;1.17;100.00;99528.19;5057828;28;20036;-68
2024/01/09 02:02:51;;;;;;;22.15;15.07;;;;;;;1.03;100.00;99536.97;5034328;28;20446;-69
2024/01/09 02:05:18;;;;;;;21.75;14.23;;;;;;;0.90;100.00;99531.91;5049789;28;20116;-68
2024/01/09 02:07:47;;;;;;;24.42;16.00;;;;;;;0.91;100.00;99526.16;5051096;28;20081;-68
2024/01/09 02:10:13;;;;;;;22.55;14.93;;;;;;;0.90;100.00;99523.66;5061325;28;20570;-68
2024/01/09 02:12:38;;;;;;;25.65;15.18;;;;;;;0.90;100.00;99531.91;5071816;28;20025;-68
2024/01/09 02:15:05;;;;;;;22.80;14.55;;;;;;;0.83;100.00;99535.78;5049562;28;20072;-68
2024/01/09 02:17:31;;;;;;;23.65;13.25;;;;;;;0.91;100.00;99541.88;5051808;28;20413;-68
2024/01/09 02:19:59;;;;;;;23.88;14.85;;;;;;;0.94;100.00;99538.56;5051882;28;20058;-68
2024/01/09 02:22:24;;;;;;;22.75;14.25;;;;;;;0.74;100.00;99533.81;5051232;28;20115;-68
2024/01/09 02:24:50;;;;;;;23.95;14.68;;;;;;;0.83;100.00;99541.28;5051686;28;20486;-68
2024/01/09 02:27:37;;;;;;;22.90;13.13;;;;;;;0.72;100.00;99546.97;5051626;28;20429;-68
2024/01/09 02:30:03;;;;;;;25.50;15.63;;;;;;;0.67;100.00;99537.63;5033878;28;20398;-68
2024/01/09 02:32:29;;;;;;;25.95;15.70;;;;;;;0.60;100.00;99541.72;5051430;28;20028;-68
2024/01/09 02:34:55;;;;;;;24.15;15.15;;;;;;;0.72;100.00;99558.00;5051810;28;20482;-67
2024/01/09 02:37:21;;;;;;;26.48;14.85;;;;;;;0.68;100.00;99542.03;5049884;28;20032;-67
2024/01/09 02:39:46;;;;;;;25.63;15.57;;;;;;;0.62;100.00;99553.28;5053604;28;20036;-66
2024/01/09 02:42:13;;;;;;;25.50;14.63;;;;;;;0.60;100.00;99542.53;5053410;28;20031;-67
2024/01/09 02:44:38;;;;;;;25.65;14.77;;;;;;;0.56;100.00;99546.91;5053463;28;20031;-67
2024/01/09 02:47:04;;;;;;;23.33;13.35;;;;;;;0.57;100.00;99534.81;5053379;28;20029;-67
2024/01/09 02:49:29;;;;;;;23.40;11.77;;;;;;;0.56;100.00;99533.16;5053504;28;20078;-66
2024/01/09 02:51:54;;;;;;;20.27;12.93;;;;;;;0.53;100.00;99530.94;5064411;28;20025;-67
2024/01/09 02:54:20;;;;;;;20.95;13.57;;;;;;;0.57;100.00;99531.25;5033566;28;20083;-67
2024/01/09 02:56:45;;;;;;;23.42;13.73;;;;;;;0.70;100.00;99539.81;5033315;28;20062;-67
2024/01/09 02:59:11;;;;;;;21.60;12.30;;;;;;;0.62;100.00;99526.59;5033330;28;20052;-67
2024/01/09 03:01:36;;;;;;;25.55;14.05;;;;;;;0.59;100.00;99551.06;5051182;28;20079;-66
2024/01/09 03:04:02;;;;;;;25.75;13.95;;;;;;;0.66;100.00;99565.41;5051269;28;20032;-67
2024/01/09 03:06:27;;;;;;;18.83;11.20;;;;;;;0.56;100.00;99571.69;5059384;28;20040;-66
2024/01/09 03:08:53;;;;;;;21.23;12.23;;;;;;;0.51;100.00;99569.72;5068628;28;20025;-66
2024/01/09 03:11:18;;;;;;;22.35;13.18;;;;;;;0.36;100.00;99573.22;5069346;28;20044;-66
2024/01/09 03:13:44;;;;;;;27.38;15.32;;;;;;;0.34;100.00;99575.38;5053376;28;20028;-66
2024/01/09 03:16:11;;;;;;;23.27;14.50;;;;;;;0.29;100.00;99580.88;5071057;28;20475;-66
2024/01/09 03:18:36;;;;;;;25.85;16.15;;;;;;;0.20;100.00;99585.19;5070251;28;20035;-66
2024/01/09 03:21:02;;;;;;;25.25;16.55;;;;;;;0.13;100.00;99600.03;5071079;28;20029;-67
2024/01/09 03:23:27;;;;;;;27.75;14.27;;;;;;;0.11;100.00;99588.44;5070971;28;20458;-67
2024/01/09 03:25:53;;;;;;;29.02;15.45;;;;;;;0.19;100.00;99589.03;5057947;28;20464;-67
2024/01/09 03:28:18;;;;;;;28.63;15.15;;;;;;;-0.02;100.00;99592.47;5050858;28;20082;-67
2024/01/09 03:30:43;;;;;;;30.48;17.55;;;;;;;0.03;100.00;99601.84;5050754;28;20086;-66
2024/01/09 03:33:09;;;;;;;30.73;17.52;;;;;;;0.08;100.00;99604.66;5050846;28;20024;-67
2024/01/09 03:35:34;;;;;;;34.38;15.80;;;;;;;-0.04;100.00;99586.41;5049494;28;20032;-66
2024/01/09 03:38:00;;;;;;;31.67;17.42;;;;;;;-0.11;100.00;99590.47;5050869;28;20048;-66
2024/01/09 03:40:25;;;;;;;38.20;18.38;;;;;;;-0.11;100.00;99607.78;5050621;28;20475;-66
2024/01/09 03:42:51;;;;;;;33.95;18.65;;;;;;;-0.09;100.00;99608.34;5052994;28;20033;-67
2024/01/09 03:45:16;;;;;;;35.80;18.83;;;;;;;-0.08;100.00;99623.75;5069470;28;20024;-68
2024/01/09 03:47:42;;;;;;;36.42;20.27;;;;;;;-0.07;100.00;99644.66;5070680;28;20031;-68
2024/01/09 03:50:08;;;;;;;28.92;15.93;;;;;;;-0.18;100.00;99646.47;5070713;28;20421;-68
2024/01/09 03:52:33;;;;;;;38.13;20.20;;;;;;;-0.16;100.00;99657.22;5070458;28;20028;-68
2024/01/09 03:54:58;;;;;;;33.28;19.88;;;;;;;-0.16;100.00;99655.28;5070662;28;20451;-68
2024/01/09 03:57:24;;;;;;;40.45;20.98;;;;;;;-0.12;100.00;99658.34;5060624;28;20124;-68
2024/01/09 03:59:49;;;;;;;38.90;20.80;;;;;;;-0.22;100.00;99667.34;5032327;28;20032;-68
2024/01/09 04:02:15;;;;;;;33.03;18.50;;;;;;;-0.27;100.00;99664.53;5052644;28;20074;-69
2024/01/09 04:04:41;;;;;;;33.90;19.98;;;;;;;-0.27;100.00;99663.72;5052558;28;20044;-69
2024/01/09 04:07:06;;;;;;;30.70;16.73;;;;;;;-0.34;100.00;99663.91;5055124;28;20025;-69
2024/01/09 04:09:32;;;;;;;36.97;18.88;;;;;;;-0.35;100.00;99665.81;5046677;28;20033;-69
2024/01/09 04:11:57;;;;;;;37.03;19.05;;;;;;;-0.25;100.00;99664.28;5052281;28;20105;-68
2024/01/09 04:14:23;;;;;;;35.50;19.20;;;;;;;-0.33;100.00;99671.06;5070489;28;20082;-68
2024/01/09 04:16:48;;;;;;;36.65;18.60;;;;;;;-0.33;100.00;99671.88;5054738;28;20492;-69
2024/01/09 04:19:14;;;;;;;34.78;18.05;;;;;;;-0.43;100.00;99666.25;5083371;28;20027;-68
2024/01/09 04:21:39;;;;;;;37.65;18.83;;;;;;;-0.49;100.00;99667.31;5089837;28;20108;-68
2024/01/09 04:24:05;;;;;;;33.28;18.05;;;;;;;-0.55;100.00;99680.16;5032781;28;20025;-68
2024/01/09 04:26:30;;;;;;;35.08;19.25;;;;;;;-0.55;100.00;99671.91;5050406;28;20035;-68
2024/01/09 04:28:55;;;;;;;32.78;15.48;;;;;;;-0.64;100.00;99687.16;5062584;28;20551;-68
2024/01/09 04:31:24;;;;;;;33.08;18.77;;;;;;;-0.64;100.00;99687.16;5071869;28;20393;-68
2024/01/09 04:33:50;;;;;;;33.50;18.30;;;;;;;-0.62;100.00;99685.00;5047676;28;20028;-68
2024/01/09 04:36:18;;;;;;;35.55;18.85;;;;;;;-0.65;100.00;99691.00;5036013;28;20036;-69
2024/01/09 04:38:46;;;;;;;46.42;21.00;;;;;;;-0.65;100.00;99702.84;5035743;28;20413;-68
2024/01/09 04:41:18;;;;;;;46.45;22.83;;;;;;;-0.65;100.00;99713.84;5071130;28;20078;-69
2024/01/09 04:43:45;;;;;;;42.20;20.77;;;;;;;-0.76;100.00;99715.59;5073365;28;20033;-69
2024/01/09 04:46:10;;;;;;;43.33;20.10;;;;;;;-0.76;100.00;99723.84;5073704;28;20020;-69
2024/01/09 04:48:36;;;;;;;45.25;20.83;;;;;;;-0.83;100.00;99725.94;5054471;28;20021;-69
2024/01/09 04:51:01;;;;;;;44.95;18.85;;;;;;;-1.00;100.00;99735.03;5053553;28;20122;-69
2024/01/09 04:53:27;;;;;;;41.13;20.15;;;;;;;-0.95;100.00;99741.69;5053533;28;20108;-68
2024/01/09 04:55:52;;;;;;;40.30;19.98;;;;;;;-0.94;100.00;99746.13;5053647;28;20055;-68
2024/01/09 04:58:18;;;;;;;38.47;20.38;;;;;;;-1.13;100.00;99746.38;5073470;28;20028;-68
2024/01/09 05:00:43;;;;;;;32.08;17.02;;;;;;;-1.07;100.00;99739.03;5073396;28;20028;-69
2024/01/09 05:03:09;;;;;;;43.22;20.25;;;;;;;-1.02;100.00;99739.13;5055140;28;20028;-68
2024/01/09 05:05:34;;;;;;;43.47;24.13;;;;;;;-0.99;100.00;99758.66;5052536;28;20497;-68
2024/01/09 05:08:00;;;;;;;40.17;21.55;;;;;;;-1.08;100.00;99760.19;5035264;28;20394;-69
2024/01/09 05:10:25;;;;;;;45.40;20.63;;;;;;;-1.05;100.00;99769.81;5054193;28;20041;-68
2024/01/09 05:12:50;;;;;;;40.58;21.70;;;;;;;-1.00;100.00;99770.72;5053187;28;20029;-68
2024/01/09 05:15:16;;;;;;;42.20;22.88;;;;;;;-0.99;100.00;99779.81;5035347;28;20021;-68
2024/01/09 05:17:41;;;;;;;42.13;22.15;;;;;;;-1.01;100.00;99771.81;5053156;28;20021;-68
2024/01/09 05:20:07;;;;;;;43.00;21.77;;;;;;;-1.01;100.00;99773.75;5035140;28;20120;-69
2024/01/09 05:22:35;;;;;;;44.78;22.50;;;;;;;-0.94;100.00;99776.31;5043314;28;20028;-68
2024/01/09 05:25:02;;;;;;;38.72;20.13;;;;;;;-0.90;100.00;99794.78;5072984;28;20028;-68
2024/01/09 05:27:28;;;;;;;42.15;21.95;;;;;;;-1.03;100.00;99789.63;5068839;28;20766;-68
2024/01/09 05:29:53;;;;;;;42.72;23.35;;;;;;;-1.08;100.00;99801.38;5071990;28;20028;-68
2024/01/09 05:32:19;;;;;;;45.53;21.92;;;;;;;-1.10;100.00;99808.19;5072048;28;20021;-70
2024/01/09 05:34:44;;;;;;;45.83;22.15;;;;;;;-1.19;100.00;99816.00;5072710;28;20024;-68
2024/01/09 05:37:10;;;;;;;45.70;22.50;;;;;;;-1.23;100.00;99812.94;5071632;28;20028;-68
2024/01/09 05:39:35;;;;;;;46.33;23.15;;;;;;;-1.24;100.00;99830.47;5071532;28;20053;-69
2024/01/09 05:42:00;;;;;;;45.60;21.60;;;;;;;-1.22;100.00;99816.50;5054431;28;20066;-68
2024/01/09 05:44:26;;;;;;;44.83;22.67;;;;;;;-1.21;100.00;99827.22;5072566;28;20035;-68
2024/01/09 05:46:51;;;;;;;42.88;20.95;;;;;;;-1.23;100.00;99831.28;5072537;28;20500;-68
2024/01/09 05:49:17;;;;;;;43.78;24.63;;;;;;;-1.18;100.00;99823.16;5065746;28;20087;-69
2024/01/09 05:51:42;;;;;;;42.38;21.75;;;;;;;-1.22;100.00;99830.22;5052064;28;20178;-68
2024/01/09 05:54:08;;;;;;;55.42;27.63;;;;;;;-1.23;100.00;99831.28;5063031;28;20473;-68
2024/01/09 05:56:33;;;;;;;46.88;24.92;;;;;;;-1.33;100.00;99827.31;5073286;28;20085;-68
2024/01/09 05:58:59;;;;;;;46.47;25.85;;;;;;;-1.27;100.00;99826.31;5052113;28;20025;-68
2024/01/09 06:01:24;;;;;;;42.75;23.35;;;;;;;-1.23;100.00;99831.28;5043995;28;20029;-68
2024/01/09 06:03:49;;;;;;;39.78;21.95;;;;;;;-1.15;100.00;99833.63;5072141;28;20020;-67
2024/01/09 06:06:15;;;;;;;45.50;23.05;;;;;;;-1.21;100.00;99840.09;5072173;28;20071;-66
2024/01/09 06:08:40;;;;;;;44.67;22.42;;;;;;;-1.23;100.00;99850.50;5072467;28;20029;-70
2024/01/09 06:11:06;;;;;;;41.50;21.83;;;;;;;-1.24;100.00;99857.09;5070943;28;20098;-65
2024/01/09 06:13:31;;;;;;;50.55;24.05;;;;;;;-1.19;100.00;99863.50;5069753;28;20055;-66
2024/01/09 06:15:57;;;;;;;51.28;26.67;;;;;;;-1.15;100.00;99866.59;5070481;28;20094;-66
2024/01/09 06:18:22;;;;;;;47.25;24.23;;;;;;;-1.29;100.00;99866.06;5060197;28;20033;-66
2024/01/09 06:20:48;;;;;;;50.85;25.35;;;;;;;-1.25;100.00;99869.16;5051985;28;20033;-68
2024/01/09 06:23:13;;;;;;;50.83;27.52;;;;;;;-1.16;100.00;99878.66;5052441;28;20021;-65
2024/01/09 06:25:39;;;;;;;58.17;29.38;;;;;;;-1.31;100.00;99866.31;5058651;28;20078;-65
2024/01/09 06:28:04;;;;;;;48.38;24.67;;;;;;;-1.29;100.00;99885.28;5066260;28;20083;-64
2024/01/09 06:30:30;;;;;;;48.67;24.83;;;;;;;-1.27;100.00;99888.59;5050279;28;20097;-67
2024/01/09 06:32:55;;;;;;;44.78;21.77;;;;;;;-1.36;100.00;99890.91;5069922;28;20432;-68
2024/01/09 06:35:21;;;;;;;45.70;22.58;;;;;;;-1.41;100.00;99901.81;5046352;28;20056;-66
2024/01/09 06:37:46;;;;;;;49.20;24.33;;;;;;;-1.28;100.00;99908.91;5060506;28;20032;-66
2024/01/09 06:40:11;;;;;;;49.38;25.45;;;;;;;-1.25;100.00;99913.91;5069714;28;20028;-69
2024/01/09 06:42:39;;;;;;;43.53;23.02;;;;;;;-1.29;100.00;99918.22;5078878;28;20467;-69
2024/01/09 06:45:05;;;;;;;44.55;24.45;;;;;;;-1.35;100.00;99925.50;5035248;28;20041;-67
2024/01/09 06:47:30;;;;;;;49.50;25.30;;;;;;;-1.27;100.00;99916.91;5061993;28;20511;-67
2024/01/09 06:49:56;;;;;;;56.33;26.58;;;;;;;-1.20;100.00;99938.72;5051227;28;20029;-68
2024/01/09 06:52:21;;;;;;;56.22;25.42;;;;;;;-1.29;100.00;99952.00;5040047;28;20024;-67
2024/01/09 06:54:47;;;;;;;55.28;27.52;;;;;;;-1.23;100.00;99950.19;5065984;28;20028;-67
2024/01/09 06:57:12;;;;;;;54.45;27.70;;;;;;;-1.17;100.00;99953.88;5065251;28;20063;-67
2024/01/09 06:59:38;;;;;;;71.03;30.60;;;;;;;-1.23;100.00;99958.41;5062423;28;20529;-66
2024/01/09 07:02:03;;;;;;;66.13;27.75;;;;;;;-1.34;100.00;99953.81;5049214;28;20032;-67
2024/01/09 07:04:28;;;;;;;86.28;34.88;;;;;;;-1.32;100.00;99955.25;5051942;28;20024;-68
2024/01/09 07:06:54;;;;;;;78.07;30.77;;;;;;;-1.27;100.00;99959.97;5068938;28;20028;-72
2024/01/09 07:09:20;;;;;;;67.57;30.48;;;;;;;-1.36;100.00;99962.28;5067094;28;20036;-71
2024/01/09 07:11:45;;;;;;;65.32;28.42;;;;;;;-1.41;100.00;99967.66;5067908;28;20048;-71
2024/01/09 07:14:11;;;;;;;49.33;23.23;;;;;;;-1.55;100.00;99975.34;5067073;28;20036;-70
2024/01/09 07:16:37;;;;;;;63.85;26.67;;;;;;;-1.51;100.00;99982.00;5066015;28;20028;-70
2024/01/09 07:19:03;;;;;;;49.80;23.58;;;;;;;-1.54;100.00;99976.19;5069715;28;20378;-67
2024/01/09 07:21:29;;;;;;;56.83;25.83;;;;;;;-1.54;100.00;99970.69;5054819;28;20028;-68
2024/01/09 07:23:54;;;;;;;67.28;29.90;;;;;;;-1.61;100.00;99973.56;5033154;28;20430;-70
2024/01/09 07:26:20;;;;;;;54.55;25.63;;;;;;;-1.54;100.00;99978.94;5064420;28;20094;-70
2024/01/09 07:28:45;;;;;;;61.28;30.17;;;;;;;-1.47;100.00;99994.19;5064859;28;20029;-69
2024/01/09 07:31:11;;;;;;;61.13;27.42;;;;;;;-1.47;100.00;99996.06;5052661;28;20025;-69
2024/01/09 07:33:36;;;;;;;63.17;28.10;;;;;;;-1.44;100.00;100001.09;5063743;28;20040;-72
2024/01/09 07:36:06;;;;;;;57.97;25.33;;;;;;;-1.50;100.00;100013.03;5047732;28;20297;-71
2024/01/09 07:38:31;;;;;;;76.82;29.63;;;;;;;-1.56;100.00;100010.19;5050144;28;20467;-68
2024/01/09 07:40:57;;;;;;;75.32;29.02;;;;;;;-1.40;100.00;100016.00;5069909;28;20029;-69
2024/01/09 07:43:22;;;;;;;62.47;28.55;;;;;;;-1.46;100.00;100022.44;5070268;28;20520;-71
2024/01/09 07:45:47;;;;;;;71.30;30.33;;;;;;;-1.32;100.00;100026.59;5062804;28;20075;-68
2024/01/09 07:48:13;;;;;;;55.75;28.02;;;;;;;-1.36;100.00;100033.63;5052381;28;20031;-69
2024/01/09 07:50:38;;;;;;;56.83;26.17;;;;;;;-1.39;100.00;100038.75;5070021;28;20029;-68
2024/01/09 07:53:04;;;;;;;62.95;28.83;;;;;;;-1.37;100.00;100031.16;5068234;28;20036;-69
2024/01/09 07:55:29;;;;;;;63.10;28.13;;;;;;;-1.33;100.00;100037.81;5070337;28;20452;-68
2024/01/09 07:57:55;;;;;;;72.35;31.08;;;;;;;-1.27;100.00;100047.81;5052386;28;20020;-66
2024/01/09 08:00:20;;;;;;;50.03;25.20;;;;;;;-1.34;100.00;100047.94;5051616;28;20033;-67
2024/01/09 08:02:46;;;;;;;48.67;24.13;;;;;;;-1.36;100.00;100044.63;5069306;28;20024;-68
2024/01/09 08:05:11;;;;;;;48.33;25.17;;;;;;;-1.31;100.00;100035.66;5065819;28;20024;-65
2024/01/09 08:07:36;;;;;;;49.33;24.13;;;;;;;-1.44;100.00;100037.59;5074172;28;20028;-68
2024/01/09 08:10:05;;;;;;;52.83;26.02;;;;;;;-1.48;100.00;100050.13;5054694;28;20074;-68
2024/01/09 08:12:31;;;;;;;51.47;27.63;;;;;;;-1.36;100.00;100043.78;5055849;28;20111;-65
2024/01/09 08:14:57;;;;;;;56.33;27.50;;;;;;;-1.32;100.00;100045.81;5050925;28;20036;-67
2024/01/09 08:17:22;;;;;;;49.30;24.73;;;;;;;-1.32;100.00;100042.22;5049553;28;20527;-67
2024/01/09 08:19:48;;;;;;;56.33;25.38;;;;;;;-1.49;100.00;100044.88;5073134;28;20031;-68
2024/01/09 08:22:13;;;;;;;48.97;25.38;;;;;;;-1.42;100.00;100051.91;5068828;28;20031;-68
2024/01/09 08:24:39;;;;;;;53.47;24.90;;;;;;;-1.47;100.00;100056.44;5072687;28;20021;-71
2024/01/09 08:27:04;;;;;;;61.88;28.15;;;;;;;-1.41;100.00;100063.72;5071037;28;20028;-72
2024/01/09 08:29:30;;;;;;;56.35;27.15;;;;;;;-1.45;100.00;100057.03;5072058;28;20093;-71
2024/01/09 08:31:55;;;;;;;65.95;28.85;;;;;;;-1.33;100.00;100076.25;5050118;28;20036;-72
2024/01/09 08:34:20;;;;;;;59.33;27.02;;;;;;;-1.41;100.00;100069.22;5072397;28;20028;-72
2024/01/09 08:36:48;;;;;;;46.65;24.52;;;;;;;-1.47;100.00;100067.41;5073049;28;20033;-72
2024/01/09 08:39:14;;;;;;;50.30;26.15;;;;;;;-1.53;100.00;100071.13;5073319;28;20032;-71
2024/01/09 08:41:41;;;;;;;53.38;24.15;;;;;;;-1.37;100.00;100067.66;5053958;28;20401;-71
2024/01/09 08:44:07;;;;;;;65.15;31.48;;;;;;;-1.31;100.00;100074.09;5068955;28;20025;-71
2024/01/09 08:46:33;;;;;;;54.38;26.92;;;;;;;-1.24;100.00;100085.78;5070532;28;20039;-71
2024/01/09 08:48:59;;;;;;;55.08;25.63;;;;;;;-1.19;100.00;100096.88;5071224;28;21026;-72
2024/01/09 08:51:24;;;;;;;55.42;23.88;;;;;;;-1.15;100.00;100094.47;5047105;28;20021;-71
2024/01/09 08:53:53;;;;;;;46.50;26.60;;;;;;;-1.02;100.00;100105.19;5071158;28;20028;-71
2024/01/09 08:56:19;;;;;;;56.00;26.52;;;;;;;-1.21;100.00;100096.28;5071243;28;20524;-71
2024/01/09 08:58:44;;;;;;;57.03;27.23;;;;;;;-1.09;100.00;100098.97;5067184;28;20025;-71
2024/01/09 09:01:10;;;;;;;53.47;26.77;;;;;;;-1.08;100.00;100097.94;5069944;28;20021;-72
2024/01/09 09:03:36;;;;;;;56.30;25.20;;;;;;;-1.14;100.00;100093.41;5059228;28;20054;-72
2024/01/09 09:06:02;;;;;;;47.83;25.65;;;;;;;-1.16;100.00;100096.38;5073461;28;20032;-71
2024/01/09 09:08:27;;;;;;;63.78;29.13;;;;;;;-1.27;100.00;100081.59;5063794;28;20102;-71
2024/01/09 09:10:53;;;;;;;55.70;24.92;;;;;;;-1.38;100.00;100079.72;5074709;28;20521;-71
2024/01/09 09:13:18;;;;;;;51.58;25.05;;;;;;;-1.27;100.00;100089.84;5068253;28;20093;-71
2024/01/09 09:15:44;;;;;;;41.72;23.38;;;;;;;-1.29;100.00;100100.22;5072923;28;20032;-71
2024/01/09 09:18:10;;;;;;;58.15;25.48;;;;;;;-1.22;100.00;100091.00;5055348;28;20017;-71
2024/01/09 09:20:36;;;;;;;43.85;21.95;;;;;;;-1.38;100.00;100087.94;5058837;28;20027;-71
2024/01/09 09:23:03;;;;;;;42.78;21.15;;;;;;;-1.29;100.00;100097.50;5069905;28;20035;-72
2024/01/09 09:25:28;;;;;;;35.53;18.77;;;;;;;-1.33;100.00;100079.84;5074208;28;20023;-71
2024/01/09 09:27:54;;;;;;;33.85;18.58;;;;;;;-1.21;100.00;100095.44;5052067;28;20021;-71
2024/01/09 09:30:20;;;;;;;39.47;22.10;;;;;;;-1.09;100.00;100093.50;5075104;28;20016;-72
2024/01/09 09:32:45;;;;;;;47.20;20.80;;;;;;;-1.22;100.00;100086.38;5070763;28;20197;-72
2024/01/09 09:35:11;;;;;;;61.47;22.52;;;;;;;-1.10;100.00;100085.50;5053520;28;20016;-69
2024/01/09 09:37:36;;;;;;;48.72;20.77;;;;;;;-1.13;100.00;100092.31;5064922;28;20074;-70
2024/01/09 09:40:03;;;;;;;33.85;18.02;;;;;;;-1.26;100.00;100096.19;5072169;28;20024;-66
2024/01/09 09:42:31;;;;;;;44.92;20.48;;;;;;;-1.43;100.00;100094.16;5052380;28;20362;-67
2024/01/09 09:45:00;;;;;;;42.88;20.08;;;;;;;-1.41;100.00;100092.00;5065573;28;20028;-67
2024/01/09 09:47:26;;;;;;;38.67;19.63;;;;;;;-1.28;100.00;100096.41;5068461;28;20043;-68
2024/01/09 09:49:53;;;;;;;35.33;18.58;;;;;;;-1.21;100.00;100095.44;5058196;28;20024;-68
2024/01/09 09:52:21;;;;;;;33.08;18.77;;;;;;;-1.39;100.00;100094.50;5050938;28;20029;-68
2024/01/09 09:54:48;;;;;;;32.60;17.75;;;;;;;-1.27;100.00;100089.84;5050791;28;20028;-67
2024/01/09 09:57:14;;;;;;;35.50;18.45;;;;;;;-1.35;100.00;100090.19;5067498;28;20028;-69
2024/01/09 09:59:39;;;;;;;46.53;20.63;;;;;;;-1.43;100.00;100087.84;5065438;28;20031;-68
2024/01/09 10:02:07;;;;;;;43.92;21.60;;;;;;;-1.36;100.00;100087.72;5062414;28;20032;-68
2024/01/09 10:04:48;;;;;;;39.15;21.38;;;;;;;-1.23;100.00;100095.69;5068415;28;20036;-71
2024/01/09 10:07:18;;;;;;;39.00;21.30;;;;;;;-1.24;100.00;100098.66;5069401;28;20389;-67
2024/01/09 10:09:48;;;;;;;40.88;21.08;;;;;;;-1.39;100.00;100088.16;5051181;28;20059;-68
2024/01/09 10:12:14;;;;;;;33.15;17.70;;;;;;;-1.33;100.00;100081.72;5067723;28;20050;-69
2024/01/09 10:15:04;;;;;;;38.42;18.95;;;;;;;-1.43;100.00;100082.34;5049938;28;20028;-68
2024/01/09 10:17:29;;;;;;;43.43;21.67;;;;;;;-1.48;100.00;100083.06;5067410;28;20119;-68
2024/01/09 10:19:54;;;;;;;41.72;20.55;;;;;;;-1.46;100.00;100078.16;5061624;28;20044;-69
2024/01/09 10:22:20;;;;;;;32.60;19.33;;;;;;;-1.39;100.00;100088.16;5056302;28;20021;-69
2024/01/09 10:24:46;;;;;;;37.55;19.10;;;;;;;-1.44;100.00;100095.22;5067947;28;20047;-67
2024/01/09 10:27:11;;;;;;;33.50;17.17;;;;;;;-1.44;100.00;100097.97;5068465;28;20504;-68
2024/01/09 10:29:43;;;;;;;36.97;19.05;;;;;;;-1.29;100.00;100111.22;5048031;28;20031;-69
2024/01/09 10:32:13;;;;;;;32.45;17.33;;;;;;;-1.47;100.00;100103.94;5067777;28;20043;-68
2024/01/09 10:37:22;;;;;;;35.00;19.42;;;;;;;-1.63;100.00;100094.53;5068250;28;20075;-71
2024/01/09 10:39:50;;;;;;;37.20;18.13;;;;;;;-1.64;100.00;100114.81;5068660;28;20524;-72
2024/01/09 10:42:15;;;;;;;37.92;19.98;;;;;;;-1.66;100.00;100111.47;5067879;28;20509;-69
2024/01/09 10:44:41;;;;;;;37.75;17.73;;;;;;;-1.61;100.00;100103.34;5065247;28;20028;-70
2024/01/09 10:47:14;;;;;;;31.50;16.48;;;;;;;-1.75;100.00;100105.50;5062661;28;20065;-69
2024/01/09 10:49:41;;;;;;;34.85;17.98;;;;;;;-1.87;100.00;100108.22;5052177;28;20452;-68
2024/01/09 10:52:16;;;;;;;33.92;17.05;;;;;;;-1.86;100.00;100118.13;5066098;28;20135;-68
2024/01/09 10:54:44;;;;;;;39.63;17.35;;;;;;;-1.90;100.00;100111.44;5042662;28;20036;-69
2024/01/09 10:57:13;;;;;;;29.92;15.82;;;;;;;-1.89;100.00;100118.59;5054529;28;20032;-69
2024/01/09 10:59:44;;;;;;;29.85;16.73;;;;;;;-1.98;100.00;100114.53;5066495;28;20020;-70
2024/01/09 11:02:15;;;;;;;37.97;17.40;;;;;;;-1.84;100.00;100124.19;5065403;28;20186;-70
2024/01/09 11:04:44;;;;;;;39.72;20.50;;;;;;;-1.91;100.00;100134.47;5062753;28;20079;-71
2024/01/09 11:07:15;;;;;;;39.57;21.77;;;;;;;-1.83;100.00;100131.34;5062794;28;20449;-68